sensor_id;sensor_type;location;lat;lon;timestamp;temperature;humidity
52621;DHT22;38515;53.160;6.990;2022-07-17T00:00:41;10.20;99.90
52621;DHT22;38515;53.160;6.990;2022-07-17T00:03:10;10.20;99.90
52621;DHT22;38515;53.160;6.990;2022-07-17T00:05:36;10.10;99.90
52621;DHT22;38515;53.160;6.990;2022-07-17T00:08:03;10.10;99.90
52621;DHT22;38515;53.160;6.990;2022-07-17T00:10:28;10.00;99.90
52621;DHT22;38515;53.160;6.990;2022-07-17T00:12:54;10.00;99.90
52621;DHT22;38515;53.160;6.990;2022-07-17T00:15:20;10.00;99.90
52621;DHT22;38515;53.160;6.990;2022-07-17T00:17:46;10.00;99.90
52621;DHT22;38515;53.160;6.990;2022-07-17T00:20:12;10.00;99.90
52621;DHT22;38515;53.160;6.990;2022-07-17T00:22:38;10.00;99.90
52621;DHT22;38515;53.160;6.990;2022-07-17T00:25:05;10.00;99.90
52621;DHT22;38515;53.160;6.990;2022-07-17T00:27:31;10.00;99.90
52621;DHT22;38515;53.160;6.990;2022-07-17T00:29:57;10.00;99.90
52621;DHT22;38515;53.160;6.990;2022-07-17T00:32:23;10.00;99.90
52621;DHT22;38515;53.160;6.990;2022-07-17T00:34:50;9.90;99.90
52621;DHT22;38515;53.160;6.990;2022-07-17T00:37:16;10.00;99.90
52621;DHT22;38515;53.160;6.990;2022-07-17T00:39:42;10.00;99.90
52621;DHT22;38515;53.160;6.990;2022-07-17T00:42:11;10.00;99.90
52621;DHT22;38515;53.160;6.990;2022-07-17T00:44:41;10.00;99.90
52621;DHT22;38515;53.160;6.990;2022-07-17T00:47:13;9.90;99.90
52621;DHT22;38515;53.160;6.990;2022-07-17T00:49:40;10.00;99.90
52621;DHT22;38515;53.160;6.990;2022-07-17T00:52:08;9.90;99.90
52621;DHT22;38515;53.160;6.990;2022-07-17T00:54:37;9.90;99.90
52621;DHT22;38515;53.160;6.990;2022-07-17T00:57:06;9.90;99.90
52621;DHT22;38515;53.160;6.990;2022-07-17T00:59:32;9.90;99.90
52621;DHT22;38515;53.160;6.990;2022-07-17T01:01:59;9.90;99.90
52621;DHT22;38515;53.160;6.990;2022-07-17T01:04:25;9.80;99.90
52621;DHT22;38515;53.160;6.990;2022-07-17T01:06:51;9.80;99.90
52621;DHT22;38515;53.160;6.990;2022-07-17T01:09:16;9.80;99.90
52621;DHT22;38515;53.160;6.990;2022-07-17T01:11:43;9.80;99.90
52621;DHT22;38515;53.160;6.990;2022-07-17T01:14:08;9.80;99.90
52621;DHT22;38515;53.160;6.990;2022-07-17T01:16:34;9.70;99.90
52621;DHT22;38515;53.160;6.990;2022-07-17T01:19:01;9.70;99.90
52621;DHT22;38515;53.160;6.990;2022-07-17T01:21:38;9.60;99.90
52621;DHT22;38515;53.160;6.990;2022-07-17T01:24:05;9.60;99.90
52621;DHT22;38515;53.160;6.990;2022-07-17T01:26:31;9.60;99.90
52621;DHT22;38515;53.160;6.990;2022-07-17T01:28:57;9.60;99.90
52621;DHT22;38515;53.160;6.990;2022-07-17T01:31:23;9.50;99.90
52621;DHT22;38515;53.160;6.990;2022-07-17T01:33:49;10.40;99.90
52621;DHT22;38515;53.160;6.990;2022-07-17T01:36:15;9.50;99.90
52621;DHT22;38515;53.160;6.990;2022-07-17T01:38:41;9.50;99.90
52621;DHT22;38515;53.160;6.990;2022-07-17T01:41:07;9.50;99.90
52621;DHT22;38515;53.160;6.990;2022-07-17T01:43:32;9.40;99.90
52621;DHT22;38515;53.160;6.990;2022-07-17T01:45:58;9.40;99.90
52621;DHT22;38515;53.160;6.990;2022-07-17T01:48:26;9.30;99.90
52621;DHT22;38515;53.160;6.990;2022-07-17T01:50:52;9.30;99.90
52621;DHT22;38515;53.160;6.990;2022-07-17T01:53:18;9.30;99.90
52621;DHT22;38515;53.160;6.990;2022-07-17T01:55:44;9.30;99.90
52621;DHT22;38515;53.160;6.990;2022-07-17T01:58:10;9.30;99.90
52621;DHT22;38515;53.160;6.990;2022-07-17T02:00:36;9.40;99.90
52621;DHT22;38515;53.160;6.990;2022-07-17T02:03:02;9.30;99.90
52621;DHT22;38515;53.160;6.990;2022-07-17T02:05:28;9.30;99.90
52621;DHT22;38515;53.160;6.990;2022-07-17T02:07:54;9.30;99.90
52621;DHT22;38515;53.160;6.990;2022-07-17T02:10:20;9.30;99.90
52621;DHT22;38515;53.160;6.990;2022-07-17T02:12:46;9.30;99.90
52621;DHT22;38515;53.160;6.990;2022-07-17T02:15:12;9.30;99.90
52621;DHT22;38515;53.160;6.990;2022-07-17T02:17:40;9.20;99.90
52621;DHT22;38515;53.160;6.990;2022-07-17T02:20:07;9.20;99.90
52621;DHT22;38515;53.160;6.990;2022-07-17T02:22:34;9.20;99.90
52621;DHT22;38515;53.160;6.990;2022-07-17T02:25:00;9.20;99.90
52621;DHT22;38515;53.160;6.990;2022-07-17T02:27:26;9.20;99.90
52621;DHT22;38515;53.160;6.990;2022-07-17T02:29:52;9.20;99.90
52621;DHT22;38515;53.160;6.990;2022-07-17T02:32:18;9.20;99.90
52621;DHT22;38515;53.160;6.990;2022-07-17T02:34:44;9.50;99.90
52621;DHT22;38515;53.160;6.990;2022-07-17T02:37:10;9.20;99.90
52621;DHT22;38515;53.160;6.990;2022-07-17T02:39:36;9.20;99.90
52621;DHT22;38515;53.160;6.990;2022-07-17T02:42:02;9.20;99.90
52621;DHT22;38515;53.160;6.990;2022-07-17T02:44:27;9.20;99.90
52621;DHT22;38515;53.160;6.990;2022-07-17T02:46:53;9.20;99.90
52621;DHT22;38515;53.160;6.990;2022-07-17T02:49:19;9.20;99.90
52621;DHT22;38515;53.160;6.990;2022-07-17T02:51:45;9.10;99.90
52621;DHT22;38515;53.160;6.990;2022-07-17T02:54:11;9.10;99.90
52621;DHT22;38515;53.160;6.990;2022-07-17T02:56:36;9.10;99.90
52621;DHT22;38515;53.160;6.990;2022-07-17T02:59:02;9.10;99.90
52621;DHT22;38515;53.160;6.990;2022-07-17T03:01:28;9.10;99.90
52621;DHT22;38515;53.160;6.990;2022-07-17T03:03:54;9.10;99.90
52621;DHT22;38515;53.160;6.990;2022-07-17T03:06:20;9.10;99.90
52621;DHT22;38515;53.160;6.990;2022-07-17T03:08:46;9.10;99.90
52621;DHT22;38515;53.160;6.990;2022-07-17T03:11:11;9.20;99.90
52621;DHT22;38515;53.160;6.990;2022-07-17T03:13:37;9.20;99.90
52621;DHT22;38515;53.160;6.990;2022-07-17T03:16:03;9.20;99.90
52621;DHT22;38515;53.160;6.990;2022-07-17T03:18:30;9.20;99.90
52621;DHT22;38515;53.160;6.990;2022-07-17T03:20:56;9.20;99.90
52621;DHT22;38515;53.160;6.990;2022-07-17T03:23:21;9.20;99.90
52621;DHT22;38515;53.160;6.990;2022-07-17T03:25:48;9.20;99.90
52621;DHT22;38515;53.160;6.990;2022-07-17T03:28:13;9.20;99.90
52621;DHT22;38515;53.160;6.990;2022-07-17T03:30:39;9.10;99.90
52621;DHT22;38515;53.160;6.990;2022-07-17T03:33:05;9.00;99.90
52621;DHT22;38515;53.160;6.990;2022-07-17T03:35:31;9.00;99.90
52621;DHT22;38515;53.160;6.990;2022-07-17T03:37:56;8.90;99.90
52621;DHT22;38515;53.160;6.990;2022-07-17T03:40:23;8.90;99.90
52621;DHT22;38515;53.160;6.990;2022-07-17T03:42:48;8.90;99.90
52621;DHT22;38515;53.160;6.990;2022-07-17T03:45:14;8.90;99.90
52621;DHT22;38515;53.160;6.990;2022-07-17T03:47:40;8.90;99.90
52621;DHT22;38515;53.160;6.990;2022-07-17T03:50:06;8.90;99.90
52621;DHT22;38515;53.160;6.990;2022-07-17T03:52:32;9.00;99.90
52621;DHT22;38515;53.160;6.990;2022-07-17T03:54:58;8.90;99.90
52621;DHT22;38515;53.160;6.990;2022-07-17T03:57:24;9.00;99.90
52621;DHT22;38515;53.160;6.990;2022-07-17T03:59:50;9.10;99.90
52621;DHT22;38515;53.160;6.990;2022-07-17T04:02:16;9.10;99.90
52621;DHT22;38515;53.160;6.990;2022-07-17T04:04:41;9.20;99.90
52621;DHT22;38515;53.160;6.990;2022-07-17T04:07:07;9.20;99.90
52621;DHT22;38515;53.160;6.990;2022-07-17T04:09:53;9.20;99.90
52621;DHT22;38515;53.160;6.990;2022-07-17T04:12:19;9.30;99.90
52621;DHT22;38515;53.160;6.990;2022-07-17T04:14:45;9.40;99.90
52621;DHT22;38515;53.160;6.990;2022-07-17T04:17:11;9.40;99.90
52621;DHT22;38515;53.160;6.990;2022-07-17T04:19:36;9.50;99.90
52621;DHT22;38515;53.160;6.990;2022-07-17T04:22:02;9.50;99.90
52621;DHT22;38515;53.160;6.990;2022-07-17T04:24:28;9.60;99.90
52621;DHT22;38515;53.160;6.990;2022-07-17T04:26:54;9.70;99.90
52621;DHT22;38515;53.160;6.990;2022-07-17T04:29:20;9.70;99.90
52621;DHT22;38515;53.160;6.990;2022-07-17T04:31:45;9.80;99.90
52621;DHT22;38515;53.160;6.990;2022-07-17T04:34:11;10.60;99.90
52621;DHT22;38515;53.160;6.990;2022-07-17T04:36:37;9.90;99.90
52621;DHT22;38515;53.160;6.990;2022-07-17T04:39:03;10.00;99.90
52621;DHT22;38515;53.160;6.990;2022-07-17T04:41:29;10.00;99.90
52621;DHT22;38515;53.160;6.990;2022-07-17T04:43:55;10.10;99.90
52621;DHT22;38515;53.160;6.990;2022-07-17T04:46:20;10.20;99.90
52621;DHT22;38515;53.160;6.990;2022-07-17T04:48:46;10.20;99.90
52621;DHT22;38515;53.160;6.990;2022-07-17T04:51:12;10.30;99.90
52621;DHT22;38515;53.160;6.990;2022-07-17T04:53:39;10.30;99.90
52621;DHT22;38515;53.160;6.990;2022-07-17T04:56:05;10.40;99.90
52621;DHT22;38515;53.160;6.990;2022-07-17T04:58:31;10.40;99.90
52621;DHT22;38515;53.160;6.990;2022-07-17T05:00:56;10.50;99.90
52621;DHT22;38515;53.160;6.990;2022-07-17T05:03:22;10.60;99.90
52621;DHT22;38515;53.160;6.990;2022-07-17T05:05:48;10.60;99.90
52621;DHT22;38515;53.160;6.990;2022-07-17T05:08:14;10.70;99.90
52621;DHT22;38515;53.160;6.990;2022-07-17T05:10:40;10.80;99.90
52621;DHT22;38515;53.160;6.990;2022-07-17T05:13:06;10.90;99.90
52621;DHT22;38515;53.160;6.990;2022-07-17T05:15:32;10.90;99.90
52621;DHT22;38515;53.160;6.990;2022-07-17T05:17:57;11.00;99.90
52621;DHT22;38515;53.160;6.990;2022-07-17T05:20:23;11.10;99.90
52621;DHT22;38515;53.160;6.990;2022-07-17T05:22:49;11.10;99.90
52621;DHT22;38515;53.160;6.990;2022-07-17T05:25:15;11.20;99.90
52621;DHT22;38515;53.160;6.990;2022-07-17T05:27:41;11.30;99.90
52621;DHT22;38515;53.160;6.990;2022-07-17T05:30:07;11.40;99.90
52621;DHT22;38515;53.160;6.990;2022-07-17T05:32:33;11.40;99.90
52621;DHT22;38515;53.160;6.990;2022-07-17T05:34:59;11.50;99.90
52621;DHT22;38515;53.160;6.990;2022-07-17T05:37:25;11.50;99.90
52621;DHT22;38515;53.160;6.990;2022-07-17T05:39:51;11.60;99.90
52621;DHT22;38515;53.160;6.990;2022-07-17T05:42:17;11.70;99.90
52621;DHT22;38515;53.160;6.990;2022-07-17T05:44:42;11.70;99.90
52621;DHT22;38515;53.160;6.990;2022-07-17T05:47:11;11.80;99.90
52621;DHT22;38515;53.160;6.990;2022-07-17T05:49:37;11.80;99.90
52621;DHT22;38515;53.160;6.990;2022-07-17T05:52:03;11.90;99.90
52621;DHT22;38515;53.160;6.990;2022-07-17T05:54:29;12.10;99.90
52621;DHT22;38515;53.160;6.990;2022-07-17T05:56:55;12.20;99.90
52621;DHT22;38515;53.160;6.990;2022-07-17T05:59:21;12.60;99.90
52621;DHT22;38515;53.160;6.990;2022-07-17T06:01:47;12.90;99.90
52621;DHT22;38515;53.160;6.990;2022-07-17T06:04:13;13.30;99.90
52621;DHT22;38515;53.160;6.990;2022-07-17T06:06:38;14.10;99.90
52621;DHT22;38515;53.160;6.990;2022-07-17T06:09:04;15.10;99.90
52621;DHT22;38515;53.160;6.990;2022-07-17T06:11:30;16.00;99.90
52621;DHT22;38515;53.160;6.990;2022-07-17T06:13:56;16.60;99.90
52621;DHT22;38515;53.160;6.990;2022-07-17T06:16:22;17.00;99.90
52621;DHT22;38515;53.160;6.990;2022-07-17T06:18:52;17.10;99.90
52621;DHT22;38515;53.160;6.990;2022-07-17T06:21:18;17.10;99.90
52621;DHT22;38515;53.160;6.990;2022-07-17T06:23:44;16.90;99.90
52621;DHT22;38515;53.160;6.990;2022-07-17T06:26:10;16.70;99.90
52621;DHT22;38515;53.160;6.990;2022-07-17T06:28:36;16.50;99.90
52621;DHT22;38515;53.160;6.990;2022-07-17T06:31:02;16.30;99.90
52621;DHT22;38515;53.160;6.990;2022-07-17T06:33:28;16.00;99.90
52621;DHT22;38515;53.160;6.990;2022-07-17T06:35:53;15.90;99.90
52621;DHT22;38515;53.160;6.990;2022-07-17T06:38:19;15.70;99.90
52621;DHT22;38515;53.160;6.990;2022-07-17T06:40:45;15.60;99.90
52621;DHT22;38515;53.160;6.990;2022-07-17T06:43:11;15.60;99.90
52621;DHT22;38515;53.160;6.990;2022-07-17T06:45:37;15.60;99.90
52621;DHT22;38515;53.160;6.990;2022-07-17T06:48:03;15.90;99.90
52621;DHT22;38515;53.160;6.990;2022-07-17T06:50:29;16.30;99.90
52621;DHT22;38515;53.160;6.990;2022-07-17T06:52:55;16.70;99.90
52621;DHT22;38515;53.160;6.990;2022-07-17T06:55:21;16.90;99.90
52621;DHT22;38515;53.160;6.990;2022-07-17T06:57:47;16.80;99.90
52621;DHT22;38515;53.160;6.990;2022-07-17T07:00:13;16.70;99.90
52621;DHT22;38515;53.160;6.990;2022-07-17T07:02:40;16.60;99.90
52621;DHT22;38515;53.160;6.990;2022-07-17T07:05:06;16.50;99.90
52621;DHT22;38515;53.160;6.990;2022-07-17T07:07:32;16.30;99.90
52621;DHT22;38515;53.160;6.990;2022-07-17T07:09:58;16.20;99.90
52621;DHT22;38515;53.160;6.990;2022-07-17T07:12:24;16.00;99.90
52621;DHT22;38515;53.160;6.990;2022-07-17T07:14:50;16.00;99.90
52621;DHT22;38515;53.160;6.990;2022-07-17T07:17:15;15.90;99.90
52621;DHT22;38515;53.160;6.990;2022-07-17T07:19:41;15.80;99.90
52621;DHT22;38515;53.160;6.990;2022-07-17T07:22:07;15.80;99.90
52621;DHT22;38515;53.160;6.990;2022-07-17T07:24:33;15.80;99.90
52621;DHT22;38515;53.160;6.990;2022-07-17T07:26:59;15.80;99.90
52621;DHT22;38515;53.160;6.990;2022-07-17T07:29:24;15.80;99.90
52621;DHT22;38515;53.160;6.990;2022-07-17T07:31:51;15.90;99.90
52621;DHT22;38515;53.160;6.990;2022-07-17T07:34:17;15.90;99.90
52621;DHT22;38515;53.160;6.990;2022-07-17T07:36:43;16.00;99.90
52621;DHT22;38515;53.160;6.990;2022-07-17T07:39:09;16.10;99.90
52621;DHT22;38515;53.160;6.990;2022-07-17T07:41:35;16.20;99.90
52621;DHT22;38515;53.160;6.990;2022-07-17T07:44:01;16.40;99.90
52621;DHT22;38515;53.160;6.990;2022-07-17T07:46:27;16.40;99.90
52621;DHT22;38515;53.160;6.990;2022-07-17T07:48:52;16.50;99.90
52621;DHT22;38515;53.160;6.990;2022-07-17T07:51:18;16.50;99.90
52621;DHT22;38515;53.160;6.990;2022-07-17T07:53:44;16.60;99.90
52621;DHT22;38515;53.160;6.990;2022-07-17T07:56:10;16.60;99.90
52621;DHT22;38515;53.160;6.990;2022-07-17T07:58:36;16.70;99.90
52621;DHT22;38515;53.160;6.990;2022-07-17T08:01:02;16.70;99.90
52621;DHT22;38515;53.160;6.990;2022-07-17T08:03:28;16.80;99.90
52621;DHT22;38515;53.160;6.990;2022-07-17T08:05:54;16.90;99.90
52621;DHT22;38515;53.160;6.990;2022-07-17T08:08:20;17.00;99.90
52621;DHT22;38515;53.160;6.990;2022-07-17T08:10:46;17.10;99.90
52621;DHT22;38515;53.160;6.990;2022-07-17T08:13:12;17.10;99.90
52621;DHT22;38515;53.160;6.990;2022-07-17T08:15:38;17.20;99.90
52621;DHT22;38515;53.160;6.990;2022-07-17T08:18:05;17.20;99.90
52621;DHT22;38515;53.160;6.990;2022-07-17T08:20:32;17.30;99.90
52621;DHT22;38515;53.160;6.990;2022-07-17T08:22:58;17.30;99.90
52621;DHT22;38515;53.160;6.990;2022-07-17T08:25:24;17.60;99.90
52621;DHT22;38515;53.160;6.990;2022-07-17T08:27:50;18.10;99.90
52621;DHT22;38515;53.160;6.990;2022-07-17T08:30:16;18.40;99.90
52621;DHT22;38515;53.160;6.990;2022-07-17T08:32:43;18.50;99.90
52621;DHT22;38515;53.160;6.990;2022-07-17T08:35:09;18.40;99.90
52621;DHT22;38515;53.160;6.990;2022-07-17T08:37:48;18.40;99.90
52621;DHT22;38515;53.160;6.990;2022-07-17T08:40:16;18.60;99.90
52621;DHT22;38515;53.160;6.990;2022-07-17T08:42:42;18.70;99.90
52621;DHT22;38515;53.160;6.990;2022-07-17T08:45:10;18.80;99.90
52621;DHT22;38515;53.160;6.990;2022-07-17T08:47:38;18.80;99.90
52621;DHT22;38515;53.160;6.990;2022-07-17T08:50:04;19.00;99.90
52621;DHT22;38515;53.160;6.990;2022-07-17T08:52:33;19.10;99.90
52621;DHT22;38515;53.160;6.990;2022-07-17T08:54:59;19.00;99.90
52621;DHT22;38515;53.160;6.990;2022-07-17T08:57:25;18.70;99.90
52621;DHT22;38515;53.160;6.990;2022-07-17T08:59:51;18.50;99.90
52621;DHT22;38515;53.160;6.990;2022-07-17T09:02:16;18.30;99.90
52621;DHT22;38515;53.160;6.990;2022-07-17T09:04:42;18.30;99.90
52621;DHT22;38515;53.160;6.990;2022-07-17T09:07:17;18.50;99.90
52621;DHT22;38515;53.160;6.990;2022-07-17T09:09:51;18.80;99.90
52621;DHT22;38515;53.160;6.990;2022-07-17T09:12:24;19.10;99.90
52621;DHT22;38515;53.160;6.990;2022-07-17T09:14:50;19.30;99.90
52621;DHT22;38515;53.160;6.990;2022-07-17T09:17:16;19.50;99.90
52621;DHT22;38515;53.160;6.990;2022-07-17T09:19:43;19.40;99.90
52621;DHT22;38515;53.160;6.990;2022-07-17T09:22:16;19.50;99.90
52621;DHT22;38515;53.160;6.990;2022-07-17T09:24:49;19.50;99.90
52621;DHT22;38515;53.160;6.990;2022-07-17T09:27:29;19.50;99.90
52621;DHT22;38515;53.160;6.990;2022-07-17T09:30:01;19.60;99.90
52621;DHT22;38515;53.160;6.990;2022-07-17T09:32:29;19.90;99.90
52621;DHT22;38515;53.160;6.990;2022-07-17T09:34:58;19.90;99.90
52621;DHT22;38515;53.160;6.990;2022-07-17T09:37:25;19.80;99.90
52621;DHT22;38515;53.160;6.990;2022-07-17T09:39:52;19.90;99.90
52621;DHT22;38515;53.160;6.990;2022-07-17T09:42:31;19.90;99.90
52621;DHT22;38515;53.160;6.990;2022-07-17T09:45:08;20.10;99.90
52621;DHT22;38515;53.160;6.990;2022-07-17T09:47:37;20.20;99.90
52621;DHT22;38515;53.160;6.990;2022-07-17T09:50:04;20.10;99.90
52621;DHT22;38515;53.160;6.990;2022-07-17T09:52:33;20.20;99.90
52621;DHT22;38515;53.160;6.990;2022-07-17T09:55:01;20.20;99.90
52621;DHT22;38515;53.160;6.990;2022-07-17T09:57:29;20.10;99.90
52621;DHT22;38515;53.160;6.990;2022-07-17T09:59:58;20.10;99.90
52621;DHT22;38515;53.160;6.990;2022-07-17T10:02:25;20.20;99.90
52621;DHT22;38515;53.160;6.990;2022-07-17T10:04:52;20.30;99.90
52621;DHT22;38515;53.160;6.990;2022-07-17T10:07:18;20.60;99.90
52621;DHT22;38515;53.160;6.990;2022-07-17T10:09:45;20.70;99.90
52621;DHT22;38515;53.160;6.990;2022-07-17T10:12:11;20.80;99.90
52621;DHT22;38515;53.160;6.990;2022-07-17T10:14:38;20.80;99.90
52621;DHT22;38515;53.160;6.990;2022-07-17T10:17:08;20.80;99.90
52621;DHT22;38515;53.160;6.990;2022-07-17T10:19:47;20.90;99.90
52621;DHT22;38515;53.160;6.990;2022-07-17T10:22:14;21.10;99.90
52621;DHT22;38515;53.160;6.990;2022-07-17T10:24:46;21.10;99.90
52621;DHT22;38515;53.160;6.990;2022-07-17T10:27:25;21.30;99.90
52621;DHT22;38515;53.160;6.990;2022-07-17T10:30:07;21.40;99.10
52621;DHT22;38515;53.160;6.990;2022-07-17T10:32:35;21.20;97.80
52621;DHT22;38515;53.160;6.990;2022-07-17T10:35:07;21.10;99.70
52621;DHT22;38515;53.160;6.990;2022-07-17T10:40:04;21.30;99.30
52621;DHT22;38515;53.160;6.990;2022-07-17T10:42:55;21.20;98.70
52621;DHT22;38515;53.160;6.990;2022-07-17T10:45:25;21.10;97.80
52621;DHT22;38515;53.160;6.990;2022-07-17T10:47:59;21.20;99.30
52621;DHT22;38515;53.160;6.990;2022-07-17T10:50:28;21.30;99.00
52621;DHT22;38515;53.160;6.990;2022-07-17T10:52:59;21.40;98.60
52621;DHT22;38515;53.160;6.990;2022-07-17T10:55:25;21.40;98.50
52621;DHT22;38515;53.160;6.990;2022-07-17T10:57:51;21.60;99.10
52621;DHT22;38515;53.160;6.990;2022-07-17T11:00:17;21.80;99.20
52621;DHT22;38515;53.160;6.990;2022-07-17T11:02:43;22.00;98.80
52621;DHT22;38515;53.160;6.990;2022-07-17T11:05:11;22.00;98.60
52621;DHT22;38515;53.160;6.990;2022-07-17T11:07:54;22.20;98.80
52621;DHT22;38515;53.160;6.990;2022-07-17T11:10:22;22.20;97.30
52621;DHT22;38515;53.160;6.990;2022-07-17T11:12:48;22.10;97.10
52621;DHT22;38515;53.160;6.990;2022-07-17T11:15:15;22.10;97.00
52621;DHT22;38515;53.160;6.990;2022-07-17T11:17:46;22.20;96.90
52621;DHT22;38515;53.160;6.990;2022-07-17T11:20:12;22.30;96.80
52621;DHT22;38515;53.160;6.990;2022-07-17T11:22:39;22.10;96.10
52621;DHT22;38515;53.160;6.990;2022-07-17T11:25:05;21.90;96.50
52621;DHT22;38515;53.160;6.990;2022-07-17T11:27:32;21.80;96.40
52621;DHT22;38515;53.160;6.990;2022-07-17T11:30:01;21.60;96.30
52621;DHT22;38515;53.160;6.990;2022-07-17T11:32:37;21.50;96.70
52621;DHT22;38515;53.160;6.990;2022-07-17T11:35:14;21.40;96.70
52621;DHT22;38515;53.160;6.990;2022-07-17T11:37:41;21.30;97.20
52621;DHT22;38515;53.160;6.990;2022-07-17T11:40:07;21.30;97.80
52621;DHT22;38515;53.160;6.990;2022-07-17T11:42:36;21.50;97.70
52621;DHT22;38515;53.160;6.990;2022-07-17T11:45:02;21.70;97.30
52621;DHT22;38515;53.160;6.990;2022-07-17T11:47:29;21.90;97.40
52621;DHT22;38515;53.160;6.990;2022-07-17T11:50:07;22.00;97.00
52621;DHT22;38515;53.160;6.990;2022-07-17T11:52:43;22.10;96.70
52621;DHT22;38515;53.160;6.990;2022-07-17T11:55:10;22.20;96.20
52621;DHT22;38515;53.160;6.990;2022-07-17T11:57:45;22.20;96.30
52621;DHT22;38515;53.160;6.990;2022-07-17T12:00:13;22.20;95.20
52621;DHT22;38515;53.160;6.990;2022-07-17T12:02:40;22.00;94.90
52621;DHT22;38515;53.160;6.990;2022-07-17T12:05:06;21.90;95.70
52621;DHT22;38515;53.160;6.990;2022-07-17T12:07:47;22.00;96.30
52621;DHT22;38515;53.160;6.990;2022-07-17T12:10:17;22.10;97.30
52621;DHT22;38515;53.160;6.990;2022-07-17T12:13:01;22.20;97.70
52621;DHT22;38515;53.160;6.990;2022-07-17T12:15:45;22.40;96.20
52621;DHT22;38515;53.160;6.990;2022-07-17T12:18:23;22.50;96.20
52621;DHT22;38515;53.160;6.990;2022-07-17T12:20:52;22.50;96.50
52621;DHT22;38515;53.160;6.990;2022-07-17T12:23:29;22.50;97.00
52621;DHT22;38515;53.160;6.990;2022-07-17T12:26:07;22.60;96.60
52621;DHT22;38515;53.160;6.990;2022-07-17T12:28:33;22.60;94.10
52621;DHT22;38515;53.160;6.990;2022-07-17T12:31:02;22.50;95.30
52621;DHT22;38515;53.160;6.990;2022-07-17T12:33:28;22.40;95.90
52621;DHT22;38515;53.160;6.990;2022-07-17T12:35:54;22.50;96.70
52621;DHT22;38515;53.160;6.990;2022-07-17T12:38:20;22.50;96.70
52621;DHT22;38515;53.160;6.990;2022-07-17T12:40:46;22.60;96.40
52621;DHT22;38515;53.160;6.990;2022-07-17T12:43:12;22.70;96.10
52621;DHT22;38515;53.160;6.990;2022-07-17T12:45:46;22.70;96.40
52621;DHT22;38515;53.160;6.990;2022-07-17T12:48:12;22.60;95.10
52621;DHT22;38515;53.160;6.990;2022-07-17T12:50:38;22.60;95.20
52621;DHT22;38515;53.160;6.990;2022-07-17T12:53:04;22.50;94.40
52621;DHT22;38515;53.160;6.990;2022-07-17T12:55:30;22.50;94.00
52621;DHT22;38515;53.160;6.990;2022-07-17T12:57:56;22.40;93.60
52621;DHT22;38515;53.160;6.990;2022-07-17T13:00:22;22.40;93.50
52621;DHT22;38515;53.160;6.990;2022-07-17T13:02:48;22.30;94.10
52621;DHT22;38515;53.160;6.990;2022-07-17T13:05:14;22.30;94.10
52621;DHT22;38515;53.160;6.990;2022-07-17T13:07:41;22.30;94.80
52621;DHT22;38515;53.160;6.990;2022-07-17T13:10:09;22.30;94.30
52621;DHT22;38515;53.160;6.990;2022-07-17T13:12:35;22.30;93.60
52621;DHT22;38515;53.160;6.990;2022-07-17T13:15:03;22.30;93.10
52621;DHT22;38515;53.160;6.990;2022-07-17T13:17:29;22.30;93.90
52621;DHT22;38515;53.160;6.990;2022-07-17T13:19:55;22.30;94.80
52621;DHT22;38515;53.160;6.990;2022-07-17T13:22:21;22.30;93.70
52621;DHT22;38515;53.160;6.990;2022-07-17T13:24:47;22.30;93.70
52621;DHT22;38515;53.160;6.990;2022-07-17T13:27:13;22.30;93.70
52621;DHT22;38515;53.160;6.990;2022-07-17T13:29:39;22.30;93.60
52621;DHT22;38515;53.160;6.990;2022-07-17T13:32:05;22.30;93.60
52621;DHT22;38515;53.160;6.990;2022-07-17T13:34:31;22.40;94.00
52621;DHT22;38515;53.160;6.990;2022-07-17T13:36:57;22.40;93.80
52621;DHT22;38515;53.160;6.990;2022-07-17T13:39:23;22.40;92.30
52621;DHT22;38515;53.160;6.990;2022-07-17T13:41:50;22.30;91.60
52621;DHT22;38515;53.160;6.990;2022-07-17T13:44:15;22.30;92.00
52621;DHT22;38515;53.160;6.990;2022-07-17T13:46:41;22.30;92.80
52621;DHT22;38515;53.160;6.990;2022-07-17T13:49:07;22.30;92.40
52621;DHT22;38515;53.160;6.990;2022-07-17T13:51:33;22.00;92.00
52621;DHT22;38515;53.160;6.990;2022-07-17T13:54:00;22.30;91.60
52621;DHT22;38515;53.160;6.990;2022-07-17T13:56:26;22.30;92.00
52621;DHT22;38515;53.160;6.990;2022-07-17T13:58:52;22.30;91.90
52621;DHT22;38515;53.160;6.990;2022-07-17T14:01:18;22.40;92.30
52621;DHT22;38515;53.160;6.990;2022-07-17T14:03:45;22.40;92.20
52621;DHT22;38515;53.160;6.990;2022-07-17T14:06:10;22.50;92.10
52621;DHT22;38515;53.160;6.990;2022-07-17T14:08:36;22.40;92.50
52621;DHT22;38515;53.160;6.990;2022-07-17T14:11:03;22.50;92.20
52621;DHT22;38515;53.160;6.990;2022-07-17T14:13:29;22.50;92.40
52621;DHT22;38515;53.160;6.990;2022-07-17T14:15:55;22.60;92.20
52621;DHT22;38515;53.160;6.990;2022-07-17T14:18:21;22.50;91.10
52621;DHT22;38515;53.160;6.990;2022-07-17T14:20:47;22.40;91.50
52621;DHT22;38515;53.160;6.990;2022-07-17T14:23:13;22.40;91.50
52621;DHT22;38515;53.160;6.990;2022-07-17T14:25:39;22.40;91.30
52621;DHT22;38515;53.160;6.990;2022-07-17T14:28:05;22.40;91.70
52621;DHT22;38515;53.160;6.990;2022-07-17T14:30:31;22.40;91.70
52621;DHT22;38515;53.160;6.990;2022-07-17T14:32:58;22.40;91.70
52621;DHT22;38515;53.160;6.990;2022-07-17T14:35:24;22.40;92.20
52621;DHT22;38515;53.160;6.990;2022-07-17T14:37:49;22.50;92.40
52621;DHT22;38515;53.160;6.990;2022-07-17T14:40:16;22.40;92.10
52621;DHT22;38515;53.160;6.990;2022-07-17T14:42:45;22.50;91.50
52621;DHT22;38515;53.160;6.990;2022-07-17T14:45:10;22.50;92.60
52621;DHT22;38515;53.160;6.990;2022-07-17T14:47:38;22.60;92.20
52621;DHT22;38515;53.160;6.990;2022-07-17T14:50:06;22.70;91.60
52621;DHT22;38515;53.160;6.990;2022-07-17T14:52:32;22.80;91.60
52621;DHT22;38515;53.160;6.990;2022-07-17T14:54:58;22.90;91.30
52621;DHT22;38515;53.160;6.990;2022-07-17T14:57:24;22.90;91.40
52621;DHT22;38515;53.160;6.990;2022-07-17T14:59:50;23.00;91.70
52621;DHT22;38515;53.160;6.990;2022-07-17T15:02:16;23.00;91.70
52621;DHT22;38515;53.160;6.990;2022-07-17T15:04:42;23.00;91.30
52621;DHT22;38515;53.160;6.990;2022-07-17T15:07:07;22.90;91.10
52621;DHT22;38515;53.160;6.990;2022-07-17T15:09:34;22.90;91.90
52621;DHT22;38515;53.160;6.990;2022-07-17T15:12:00;22.90;91.20
52621;DHT22;38515;53.160;6.990;2022-07-17T15:14:26;23.00;91.70
52621;DHT22;38515;53.160;6.990;2022-07-17T15:16:52;23.00;92.10
52621;DHT22;38515;53.160;6.990;2022-07-17T15:19:19;23.10;91.50
52621;DHT22;38515;53.160;6.990;2022-07-17T15:21:48;23.20;91.10
52621;DHT22;38515;53.160;6.990;2022-07-17T15:24:16;23.20;90.60
52621;DHT22;38515;53.160;6.990;2022-07-17T15:26:42;23.20;92.10
52621;DHT22;38515;53.160;6.990;2022-07-17T15:29:08;23.20;91.50
52621;DHT22;38515;53.160;6.990;2022-07-17T15:31:34;23.20;91.40
52621;DHT22;38515;53.160;6.990;2022-07-17T15:34:00;23.20;91.20
52621;DHT22;38515;53.160;6.990;2022-07-17T15:36:26;23.40;90.60